This is the latest recevied weather packets stored in our database for station/object JE3XST-13. If no packets are shown the sender has not sent any weather packets the latest 10 day(s).
| Time | Temp. | Humidity | Pressure | Rain* | Wind** | Luminosity | Snow |
|---|---|---|---|---|---|---|---|
| 1787623060 | 33.89° C | 59% | 1012.6 hPa | 0 mm | - | - | - |
| 1787621259 | 33.33° C | 61% | 1012.9 hPa | 0 mm | - | - | - |
| 1787619457 | 32.22° C | 70% | 1013.1 hPa | 0 mm | - | - | - |
| 1787617656 | 31.11° C | 71% | 1013.2 hPa | 0 mm | - | - | - |
| 1787615856 | 30° C | 77% | 1013.3 hPa | 0 mm | - | - | - |
| 1787614055 | 28.89° C | 80% | 1013.2 hPa | 0 mm | - | - | - |
| 1787612254 | 28.33° C | 81% | 1013.2 hPa | 0 mm | - | - | - |
| 1787610453 | 27.78° C | 86% | 1013 hPa | 0 mm | - | - | - |
| 1787608653 | 26.67° C | 88% | 1013.1 hPa | 0 mm | - | - | - |
| 1787606852 | 26.67° C | 89% | 1013 hPa | 0 mm | - | - | - |
| 1787605051 | 26.11° C | 90% | 1012.9 hPa | 0 mm | - | - | - |
| 1787603250 | 26.11° C | 91% | 1012.7 hPa | 0 mm | - | - | - |
| 1787601449 | 25.56° C | 91% | 1012.6 hPa | 0 mm | - | - | - |
| 1787599648 | 25.56° C | 91% | 1012.6 hPa | 0 mm | - | - | - |
| 1787597848 | 25.56° C | 91% | 1012.4 hPa | 0 mm | - | - | - |
| 1787596049 | 26.11° C | 90% | 1012.4 hPa | 0 mm | - | - | - |
| 1787594247 | 26.11° C | 88% | 1012.5 hPa | 0 mm | - | - | - |
| 1787592448 | 26.67° C | 87% | 1012.6 hPa | 0 mm | - | - | - |
| 1787590647 | 26.11° C | 88% | 1012.7 hPa | 0 mm | - | - | - |
| 1787588846 | 26.11° C | 88% | 1012.8 hPa | 0 mm | - | - | - |
| 1787587046 | 26.67° C | 88% | 1012.8 hPa | 0 mm | - | - | - |
| 1787585245 | 26.67° C | 89% | 1012.9 hPa | 0 mm | - | - | - |
| 1787583445 | 26.67° C | 89% | 1013.2 hPa | 0 mm | - | - | - |
| 1787581644 | 26.67° C | 88% | 1013.1 hPa | 0 mm | - | - | - |
| 1787579844 | 26.67° C | 88% | 1012.9 hPa | 0 mm | - | - | - |
* Rain latest hour (hover to see other rain measurements)
** Current wind speed in m/s (hover to see current wind gust speed)